Time;durP1;ratioP1;P1;durP2;ratioP2;P2;SDS_P1;SDS_P2;PMS_P1;PMS_P2;Temp;Humidity;BMP_temperature;BMP_pressure;BME280_temperature;BME280_humidity;BME280_pressure;Samples;Min_cycle;Max_cycle;Signal;HPM_P1;HPM_P2
2024/01/06 00:01:02;;;;;;;30.13;27.65;;;;;;;2.96;100.00;100898.75;5040886;28;20077;-54
2024/01/06 00:03:29;;;;;;;33.10;30.55;;;;;;;3.07;100.00;100897.72;5044690;28;20045;-54
2024/01/06 00:05:56;;;;;;;32.13;29.45;;;;;;;3.13;100.00;100893.66;5044361;28;20053;-54
2024/01/06 00:08:23;;;;;;;30.35;27.75;;;;;;;2.92;100.00;100883.50;5044125;28;20069;-53
2024/01/06 00:10:49;;;;;;;29.40;27.10;;;;;;;2.86;100.00;100866.56;5046378;28;20049;-53
2024/01/06 00:13:16;;;;;;;30.50;28.02;;;;;;;2.87;100.00;100862.94;5039189;28;20052;-54
2024/01/06 00:15:45;;;;;;;29.83;27.52;;;;;;;3.00;100.00;100854.69;5039570;28;20442;-62
2024/01/06 00:18:12;;;;;;;32.65;30.05;;;;;;;3.18;100.00;100844.16;5046562;28;20041;-54
2024/01/06 00:20:39;;;;;;;29.40;27.10;;;;;;;3.16;100.00;100839.03;5036705;28;20060;-54
2024/01/06 00:23:05;;;;;;;30.35;27.95;;;;;;;3.55;100.00;100843.88;5041967;28;20478;-54
2024/01/06 00:25:32;;;;;;;31.65;28.95;;;;;;;3.89;100.00;100849.09;5036622;28;20410;-54
2024/01/06 00:27:59;;;;;;;30.45;27.50;;;;;;;4.23;100.00;100845.56;5042428;28;20445;-54
2024/01/06 00:30:26;;;;;;;30.10;27.50;;;;;;;3.94;100.00;100845.19;5035982;28;20052;-54
2024/01/06 00:32:54;;;;;;;31.55;28.33;;;;;;;3.32;100.00;100848.00;5037729;28;20060;-53
2024/01/06 00:35:21;;;;;;;30.65;27.42;;;;;;;3.15;100.00;100863.66;5044930;28;20057;-54
2024/01/06 00:37:48;;;;;;;31.25;28.55;;;;;;;3.11;100.00;100864.91;5040990;28;20049;-54
2024/01/06 00:40:15;;;;;;;43.95;33.88;;;;;;;3.34;100.00;100867.88;5034240;28;20758;-53
2024/01/06 00:42:42;;;;;;;32.50;29.75;;;;;;;3.46;100.00;100880.75;5044824;28;20049;-54
2024/01/06 00:45:10;;;;;;;32.78;29.65;;;;;;;3.29;100.00;100885.06;5038095;28;20049;-54
2024/01/06 00:47:37;;;;;;;30.00;27.60;;;;;;;3.31;100.00;100883.13;5045561;28;20053;-63
2024/01/06 00:50:06;;;;;;;32.15;29.30;;;;;;;3.26;100.00;100880.94;5041956;28;20053;-54
2024/01/06 00:52:32;;;;;;;30.63;28.23;;;;;;;3.48;100.00;100876.16;5042164;28;20052;-54
2024/01/06 00:54:59;;;;;;;30.65;28.23;;;;;;;3.42;100.00;100882.88;5050623;28;20522;-53
2024/01/06 00:57:26;;;;;;;32.17;29.58;;;;;;;3.09;100.00;100881.81;5036241;28;20053;-54
2024/01/06 00:59:53;;;;;;;36.38;33.03;;;;;;;3.32;100.00;100880.31;5045381;28;20437;-54
2024/01/06 01:02:20;;;;;;;33.72;31.13;;;;;;;3.40;100.00;100884.81;5037076;28;20042;-53
2024/01/06 01:04:47;;;;;;;32.83;30.33;;;;;;;3.34;100.00;100877.56;5047229;28;20411;-53
2024/01/06 01:07:15;;;;;;;33.17;30.27;;;;;;;3.52;100.00;100875.69;5042454;28;20434;-54
2024/01/06 01:09:42;;;;;;;33.75;31.10;;;;;;;3.28;100.00;100884.25;5040381;28;20049;-54
2024/01/06 01:12:09;;;;;;;33.47;30.75;;;;;;;3.37;100.00;100864.13;5039799;28;20049;-54
2024/01/06 01:14:36;;;;;;;32.35;29.85;;;;;;;3.56;100.00;100877.00;5040605;28;20059;-55
2024/01/06 01:17:04;;;;;;;32.25;29.75;;;;;;;3.52;100.00;100874.88;5036546;28;20057;-54
2024/01/06 01:19:31;;;;;;;34.05;31.13;;;;;;;3.67;100.00;100875.94;5045134;28;20052;-54
2024/01/06 01:21:58;;;;;;;31.30;28.90;;;;;;;3.68;100.00;100867.88;5041018;28;20077;-62
2024/01/06 01:24:26;;;;;;;30.10;27.80;;;;;;;4.05;100.00;100863.25;5041531;28;20507;-54
2024/01/06 01:26:53;;;;;;;30.25;27.85;;;;;;;4.17;100.00;100856.72;5044677;28;20049;-64
2024/01/06 01:29:20;;;;;;;29.60;27.17;;;;;;;4.07;100.00;100862.13;5037570;28;20138;-54
2024/01/06 01:31:47;;;;;;;32.92;30.13;;;;;;;3.66;100.00;100848.00;5048664;28;20473;-64
2024/01/06 01:34:14;;;;;;;30.70;28.30;;;;;;;3.49;100.00;100841.03;5041030;28;20049;-54
2024/01/06 01:36:41;;;;;;;36.08;32.55;;;;;;;3.44;100.00;100831.00;5051492;28;20057;-53
2024/01/06 01:39:08;;;;;;;35.92;32.92;;;;;;;3.43;100.00;100821.47;5038788;28;20049;-59
2024/01/06 01:41:36;;;;;;;37.65;34.55;;;;;;;3.39;100.00;100822.78;5052315;28;20502;-63
2024/01/06 01:44:03;;;;;;;31.80;28.98;;;;;;;3.25;100.00;100826.81;5038719;28;20041;-63
2024/01/06 01:46:31;;;;;;;31.85;28.77;;;;;;;3.36;100.00;100820.44;5050407;28;20056;-52
2024/01/06 01:49:00;;;;;;;32.78;30.02;;;;;;;3.49;100.00;100814.78;5037355;28;20403;-53
2024/01/06 01:51:29;;;;;;;33.15;30.55;;;;;;;3.52;100.00;100825.78;5046803;28;20064;-54
2024/01/06 01:53:57;;;;;;;34.33;31.60;;;;;;;3.40;100.00;100827.06;5047192;28;20056;-55
2024/01/06 01:56:25;;;;;;;34.40;31.65;;;;;;;3.26;100.00;100832.88;5047085;28;20049;-54
2024/01/06 01:58:54;;;;;;;36.22;33.10;;;;;;;3.34;100.00;100825.88;5046126;28;20056;-54
2024/01/06 02:01:21;;;;;;;37.72;34.58;;;;;;;3.55;100.00;100809.72;5047519;28;20075;-54
2024/01/06 02:03:47;;;;;;;34.47;31.83;;;;;;;3.80;100.00;100822.94;5043681;28;20053;-54
2024/01/06 02:06:14;;;;;;;36.75;33.53;;;;;;;3.73;100.00;100825.41;5044296;28;20425;-54
2024/01/06 02:08:41;;;;;;;36.92;33.92;;;;;;;3.44;100.00;100817.88;5048998;28;20063;-54
2024/01/06 02:11:08;;;;;;;41.13;37.83;;;;;;;3.58;100.00;100812.03;5049115;28;20045;-54
2024/01/06 02:13:36;;;;;;;37.78;34.78;;;;;;;3.72;100.00;100805.34;5037695;28;20045;-62
2024/01/06 02:16:05;;;;;;;39.28;34.97;;;;;;;3.90;100.00;100794.72;5041388;28;20072;-64
2024/01/06 02:18:32;;;;;;;40.50;36.67;;;;;;;3.66;100.00;100795.47;5037740;28;20053;-54
2024/01/06 02:21:01;;;;;;;41.40;38.00;;;;;;;3.47;100.00;100790.47;5039838;28;20057;-53
2024/01/06 02:23:30;;;;;;;39.15;35.95;;;;;;;3.62;100.00;100792.34;5048707;28;20061;-53
2024/01/06 02:25:57;;;;;;;36.92;33.92;;;;;;;3.67;100.00;100789.25;5039861;28;20450;-54
2024/01/06 02:28:24;;;;;;;34.50;31.80;;;;;;;3.71;100.00;100787.94;5049917;28;20443;-54
2024/01/06 02:30:51;;;;;;;38.90;36.00;;;;;;;3.62;100.00;100788.88;5046756;28;20061;-58
2024/01/06 02:33:19;;;;;;;35.17;32.30;;;;;;;3.46;100.00;100791.47;5035411;28;20053;-54
2024/01/06 02:35:46;;;;;;;36.17;32.97;;;;;;;3.39;100.00;100781.59;5038020;28;20063;-54
2024/01/06 02:38:13;;;;;;;36.78;33.70;;;;;;;3.42;100.00;100768.16;5041989;28;20536;-54
2024/01/06 02:40:42;;;;;;;37.58;34.55;;;;;;;3.58;100.00;100772.63;5036903;28;20060;-54
2024/01/06 02:43:09;;;;;;;39.38;35.45;;;;;;;3.60;100.00;100769.84;5045324;28;20045;-52
2024/01/06 02:45:36;;;;;;;37.15;34.05;;;;;;;3.52;100.00;100761.94;5047250;28;20074;-54
2024/01/06 02:48:03;;;;;;;37.28;34.10;;;;;;;3.35;100.00;100769.75;5046589;28;20071;-54
2024/01/06 02:50:30;;;;;;;35.33;32.50;;;;;;;3.25;100.00;100769.03;5048399;28;20052;-53
2024/01/06 02:52:57;;;;;;;40.08;36.75;;;;;;;3.29;100.00;100769.56;5049152;28;20500;-53
2024/01/06 02:55:23;;;;;;;35.80;32.92;;;;;;;3.42;100.00;100767.34;5046861;28;20045;-53
2024/01/06 02:57:52;;;;;;;36.95;33.22;;;;;;;3.43;100.00;100769.78;5035056;28;20057;-53
2024/01/06 03:00:19;;;;;;;41.30;37.95;;;;;;;3.44;100.00;100778.47;5039941;28;20052;-53
2024/01/06 03:02:46;;;;;;;40.88;37.13;;;;;;;3.46;100.00;100766.03;5041399;28;20052;-53
2024/01/06 03:05:13;;;;;;;41.30;38.13;;;;;;;3.46;100.00;100758.16;5040810;28;20059;-54
2024/01/06 03:07:40;;;;;;;40.53;37.03;;;;;;;3.34;100.00;100760.22;5050111;28;20053;-54
2024/01/06 03:10:07;;;;;;;38.45;35.40;;;;;;;3.24;100.00;100759.53;5041706;28;20355;-54
2024/01/06 03:12:34;;;;;;;41.25;37.95;;;;;;;3.20;100.00;100755.56;5043680;28;20049;-53
2024/01/06 03:15:02;;;;;;;40.42;36.95;;;;;;;3.41;100.00;100757.78;5037716;28;20061;-55
2024/01/06 03:17:29;;;;;;;36.80;34.00;;;;;;;3.58;100.00;100758.69;5041091;28;20434;-54
2024/01/06 03:19:56;;;;;;;40.10;36.25;;;;;;;3.38;100.00;100758.09;5039830;28;20115;-55
2024/01/06 03:22:23;;;;;;;38.22;35.03;;;;;;;3.21;100.00;100757.22;5042892;28;20048;-54
2024/01/06 03:24:50;;;;;;;40.80;37.67;;;;;;;3.34;100.00;100757.59;5042467;28;20056;-54
2024/01/06 03:27:17;;;;;;;36.22;33.10;;;;;;;3.46;100.00;100758.16;5043060;28;20060;-54
2024/01/06 03:29:44;;;;;;;37.45;34.55;;;;;;;3.50;100.00;100748.13;5040987;28;20536;-54
2024/01/06 03:32:12;;;;;;;36.03;33.13;;;;;;;3.53;100.00;100737.31;5042132;28;20046;-64
2024/01/06 03:34:39;;;;;;;38.40;35.40;;;;;;;3.47;100.00;100741.41;5037213;28;20061;-63
2024/01/06 03:37:06;;;;;;;40.42;37.25;;;;;;;3.52;100.00;100735.69;5047483;28;20533;-64
2024/01/06 03:39:32;;;;;;;39.03;35.83;;;;;;;3.73;100.00;100740.50;5041322;28;20052;-54
2024/01/06 03:42:01;;;;;;;38.50;35.15;;;;;;;3.70;100.00;100727.69;5042053;28;20507;-53
2024/01/06 03:44:30;;;;;;;38.50;35.40;;;;;;;3.57;100.00;100734.22;5045174;28;20457;-62
2024/01/06 03:46:57;;;;;;;37.70;34.60;;;;;;;3.72;100.00;100729.16;5035235;28;20063;-64
2024/01/06 03:49:25;;;;;;;36.22;33.35;;;;;;;3.64;100.00;100724.72;5040914;28;20400;-54
2024/01/06 03:51:52;;;;;;;36.42;33.42;;;;;;;3.79;100.00;100734.59;5035572;28;20041;-52
2024/01/06 03:54:19;;;;;;;38.35;35.35;;;;;;;3.59;100.00;100739.31;5050752;28;20085;-54
2024/01/06 03:56:46;;;;;;;38.20;35.25;;;;;;;3.67;100.00;100742.78;5046275;28;20433;-53
2024/01/06 03:59:13;;;;;;;36.03;33.13;;;;;;;3.38;100.00;100744.97;5047179;28;20480;-64
2024/01/06 04:01:40;;;;;;;40.28;37.28;;;;;;;3.61;100.00;100743.41;5043926;28;20053;-63
2024/01/06 04:04:07;;;;;;;39.97;36.97;;;;;;;3.73;100.00;100746.56;5050034;28;20447;-64
2024/01/06 04:06:35;;;;;;;38.25;35.05;;;;;;;3.63;100.00;100759.00;5043718;28;20052;-64
2024/01/06 04:09:02;;;;;;;32.50;30.02;;;;;;;3.55;100.00;100766.88;5036336;28;20056;-64
2024/01/06 04:11:29;;;;;;;32.50;30.02;;;;;;;3.33;100.00;100763.84;5040120;28;20505;-63
2024/01/06 04:13:56;;;;;;;38.30;35.40;;;;;;;3.39;100.00;100757.16;5040518;28;20050;-54
2024/01/06 04:16:23;;;;;;;35.33;32.53;;;;;;;3.52;100.00;100767.19;5051289;28;20041;-63
2024/01/06 04:18:49;;;;;;;33.67;30.67;;;;;;;3.43;100.00;100772.41;5043010;28;20060;-54
2024/01/06 04:21:16;;;;;;;34.03;31.40;;;;;;;3.39;100.00;100772.91;5051625;28;20049;-54
2024/01/06 04:23:45;;;;;;;33.90;30.10;;;;;;;3.47;100.00;100774.72;5042479;28;20082;-59
2024/01/06 04:26:14;;;;;;;35.30;32.50;;;;;;;3.41;100.00;100769.09;5048036;28;20455;-54
2024/01/06 04:28:41;;;;;;;31.17;28.77;;;;;;;3.49;100.00;100767.50;5047797;28;20048;-53
2024/01/06 04:31:08;;;;;;;31.60;29.17;;;;;;;3.55;100.00;100772.13;5049125;28;20056;-63
2024/01/06 04:33:36;;;;;;;31.17;28.67;;;;;;;3.28;100.00;100767.91;5044267;28;20045;-53
2024/01/06 04:36:06;;;;;;;33.78;31.05;;;;;;;3.11;100.00;100759.94;5050078;28;20078;-63
2024/01/06 04:38:33;;;;;;;36.75;33.95;;;;;;;3.13;100.00;100770.28;5047492;28;20045;-63
2024/01/06 04:41:01;;;;;;;32.75;30.25;;;;;;;3.17;100.00;100769.00;5046850;28;20548;-54
2024/01/06 04:43:28;;;;;;;38.70;35.35;;;;;;;3.00;100.00;100773.34;5046924;28;20044;-62
2024/01/06 04:45:57;;;;;;;34.75;31.88;;;;;;;3.05;100.00;100771.06;5049015;28;20044;-54
2024/01/06 04:48:24;;;;;;;34.00;31.42;;;;;;;3.13;100.00;100780.78;5045648;28;20052;-53
2024/01/06 04:50:51;;;;;;;30.70;28.40;;;;;;;3.24;100.00;100777.91;5039648;28;20573;-54
2024/01/06 04:53:18;;;;;;;32.40;30.05;;;;;;;2.92;100.00;100768.88;5047609;28;20067;-52
2024/01/06 04:55:44;;;;;;;29.70;27.45;;;;;;;2.87;100.00;100771.13;5044762;28;20049;-63
2024/01/06 04:58:13;;;;;;;29.55;26.75;;;;;;;2.56;100.00;100764.69;5042317;28;20102;-54
2024/01/06 05:00:39;;;;;;;34.95;32.40;;;;;;;2.85;100.00;100761.78;5039928;28;20049;-54
2024/01/06 05:03:06;;;;;;;29.67;27.27;;;;;;;2.80;100.00;100756.16;5045264;28;20395;-55
2024/01/06 05:05:33;;;;;;;28.67;26.48;;;;;;;2.70;100.00;100751.84;5035190;28;20506;-54
2024/01/06 05:08:01;;;;;;;26.85;24.55;;;;;;;2.73;100.00;100746.28;5041414;28;20568;-63
2024/01/06 05:10:28;;;;;;;29.40;27.20;;;;;;;2.73;100.00;100748.09;5047543;28;20091;-54
2024/01/06 05:12:54;;;;;;;29.45;27.05;;;;;;;2.65;100.00;100759.34;5046284;28;20049;-54
2024/01/06 05:15:23;;;;;;;33.20;30.80;;;;;;;2.43;100.00;100760.66;5031984;28;20071;-54
2024/01/06 05:17:50;;;;;;;35.40;32.80;;;;;;;2.33;100.00;100756.44;5043336;28;20059;-55
2024/01/06 05:20:17;;;;;;;37.55;34.55;;;;;;;2.43;100.00;100763.28;5045815;28;20079;-54
2024/01/06 05:22:43;;;;;;;39.33;36.10;;;;;;;2.61;100.00;100778.16;5044910;28;20418;-53
2024/01/06 05:25:10;;;;;;;39.58;36.58;;;;;;;2.71;100.00;100773.63;5044321;28;20049;-54
2024/01/06 05:27:37;;;;;;;35.90;33.22;;;;;;;2.62;100.00;100779.81;5038165;28;20065;-63
2024/01/06 05:30:06;;;;;;;32.58;30.20;;;;;;;2.55;100.00;100781.41;5044091;28;20053;-63
2024/01/06 05:32:34;;;;;;;30.70;28.30;;;;;;;2.47;100.00;100769.84;5043283;28;20136;-63
2024/01/06 05:35:01;;;;;;;32.55;29.83;;;;;;;2.52;100.00;100785.13;5049917;28;20064;-55
2024/01/06 05:37:28;;;;;;;28.58;26.40;;;;;;;2.47;100.00;100774.28;5046145;28;20072;-55
2024/01/06 05:39:55;;;;;;;27.02;25.13;;;;;;;2.46;100.00;100775.25;5062574;28;20060;-63
2024/01/06 05:42:22;;;;;;;29.38;26.67;;;;;;;2.20;100.00;100778.63;5038738;28;20573;-63
2024/01/06 05:44:49;;;;;;;28.10;26.00;;;;;;;2.17;100.00;100776.31;5046684;28;20057;-53
2024/01/06 05:47:16;;;;;;;29.40;27.30;;;;;;;2.27;100.00;100771.84;5041259;28;20049;-54
2024/01/06 05:49:44;;;;;;;29.50;27.40;;;;;;;2.27;100.00;100769.22;5047003;28;20069;-54
2024/01/06 05:52:12;;;;;;;29.73;27.63;;;;;;;1.93;100.00;100781.31;5041940;28;20430;-63
2024/01/06 05:54:42;;;;;;;34.05;31.95;;;;;;;2.09;100.00;100788.50;5050099;28;20048;-54
2024/01/06 05:57:08;;;;;;;31.25;28.95;;;;;;;2.12;100.00;100781.19;5046910;28;20045;-63
2024/01/06 05:59:36;;;;;;;27.58;25.73;;;;;;;2.28;100.00;100775.28;5051937;28;20954;-63
2024/01/06 06:02:03;;;;;;;26.88;25.05;;;;;;;2.34;100.00;100771.22;5038032;28;20521;-64
2024/01/06 06:04:30;;;;;;;31.10;29.00;;;;;;;2.26;100.00;100772.78;5048604;28;20044;-63
2024/01/06 06:06:58;;;;;;;27.42;25.52;;;;;;;2.24;100.00;100760.81;5053088;28;20739;-54
2024/01/06 06:09:25;;;;;;;32.55;30.55;;;;;;;2.54;100.00;100759.56;5045015;28;20143;-55
2024/01/06 06:11:52;;;;;;;30.80;28.60;;;;;;;2.28;100.00;100746.44;5042929;28;20052;-55
2024/01/06 06:14:19;;;;;;;29.98;27.90;;;;;;;2.26;100.00;100751.00;5053230;28;20810;-53
2024/01/06 06:16:47;;;;;;;29.73;27.33;;;;;;;2.48;100.00;100741.81;5043044;28;20072;-55
2024/01/06 06:19:14;;;;;;;29.30;27.10;;;;;;;2.50;100.00;100737.25;5038415;28;20045;-55
2024/01/06 06:21:41;;;;;;;31.42;28.65;;;;;;;2.47;100.00;100743.63;5043413;28;20413;-55
2024/01/06 06:24:09;;;;;;;35.85;33.70;;;;;;;2.29;100.00;100743.66;5040199;28;20049;-54
2024/01/06 06:26:36;;;;;;;33.60;31.33;;;;;;;2.79;100.00;100749.28;5045443;28;20427;-54
2024/01/06 06:29:03;;;;;;;33.70;30.88;;;;;;;3.14;100.00;100743.06;5041732;28;20050;-54
2024/01/06 06:31:30;;;;;;;33.70;31.20;;;;;;;3.40;100.00;100740.41;5045071;28;20164;-63
2024/01/06 06:33:57;;;;;;;32.45;30.15;;;;;;;3.44;100.00;100737.28;5042305;28;20578;-53
2024/01/06 06:36:24;;;;;;;30.13;28.02;;;;;;;3.49;100.00;100743.88;5048378;28;20045;-55
2024/01/06 06:38:51;;;;;;;28.35;26.27;;;;;;;3.19;100.00;100748.66;5042230;28;20053;-64
2024/01/06 06:41:19;;;;;;;29.38;27.17;;;;;;;3.45;100.00;100748.63;5052029;28;20057;-54
2024/01/06 06:43:49;;;;;;;28.48;26.45;;;;;;;3.20;100.00;100743.25;5044471;28;20046;-54
2024/01/06 06:46:15;;;;;;;30.08;27.98;;;;;;;3.43;100.00;100745.34;5045764;28;20060;-54
2024/01/06 06:48:42;;;;;;;31.65;28.73;;;;;;;3.63;100.00;100746.72;5040018;28;20057;-54
2024/01/06 06:51:10;;;;;;;28.92;26.90;;;;;;;3.79;100.00;100747.75;5047921;28;20049;-63
2024/01/06 06:53:37;;;;;;;30.55;28.45;;;;;;;3.96;100.00;100748.59;5044386;28;20510;-63
2024/01/06 06:56:04;;;;;;;30.45;28.15;;;;;;;3.92;100.00;100757.78;5052684;28;20064;-63
2024/01/06 06:58:33;;;;;;;31.98;29.45;;;;;;;4.15;100.00;100750.09;5037685;28;20053;-54
2024/01/06 07:01:00;;;;;;;31.08;28.77;;;;;;;4.32;100.00;100757.81;5047608;28;20525;-54
2024/01/06 07:03:27;;;;;;;30.63;28.40;;;;;;;4.35;100.00;100754.84;5045267;28;20119;-52
2024/01/06 07:05:54;;;;;;;32.83;30.13;;;;;;;4.56;100.00;100762.25;5048950;28;20645;-55
2024/01/06 07:08:21;;;;;;;32.40;30.00;;;;;;;4.54;100.00;100758.16;5050073;28;20415;-54
2024/01/06 07:10:48;;;;;;;31.40;29.10;;;;;;;4.64;100.00;100758.00;5042602;28;20056;-55
2024/01/06 07:13:15;;;;;;;36.15;33.55;;;;;;;4.86;100.00;100759.91;5049010;28;20044;-55
2024/01/06 07:15:44;;;;;;;34.67;32.08;;;;;;;4.86;100.00;100751.22;5040245;28;20053;-56
2024/01/06 07:18:12;;;;;;;31.80;29.50;;;;;;;4.91;100.00;100754.97;5043577;28;20091;-54
2024/01/06 07:20:38;;;;;;;34.90;32.30;;;;;;;4.90;100.00;100765.66;5044847;28;20048;-55
2024/01/06 07:23:05;;;;;;;36.47;33.75;;;;;;;4.94;100.00;100754.66;5045972;28;20052;-55
2024/01/06 07:25:32;;;;;;;36.67;33.95;;;;;;;4.94;100.00;100741.50;5040885;28;20060;-53
2024/01/06 07:27:59;;;;;;;33.70;31.23;;;;;;;5.08;100.00;100724.16;5047463;28;20085;-54
2024/01/06 07:30:26;;;;;;;33.58;31.17;;;;;;;5.20;100.00;100722.78;5042276;28;21034;-54
2024/01/06 07:32:54;;;;;;;35.75;33.20;;;;;;;5.04;100.00;100722.88;5046909;28;20056;-53
2024/01/06 07:35:21;;;;;;;41.10;38.20;;;;;;;5.09;100.00;100728.44;5040233;28;20561;-53
2024/01/06 07:37:48;;;;;;;38.72;36.03;;;;;;;5.13;100.00;100728.94;5055572;28;20052;-52
2024/01/06 07:40:16;;;;;;;42.47;38.70;;;;;;;5.30;100.00;100730.53;5047447;28;20060;-53
2024/01/06 07:42:43;;;;;;;37.47;34.50;;;;;;;5.58;100.00;100736.16;4966296;28;20054;-53
2024/01/06 07:45:10;;;;;;;39.28;36.25;;;;;;;5.70;100.00;100747.13;5003071;28;20041;-63
2024/01/06 07:47:38;;;;;;;38.40;35.58;;;;;;;5.58;100.00;100743.22;5004709;28;20503;-63
2024/01/06 07:50:08;;;;;;;37.47;34.63;;;;;;;5.75;100.00;100742.16;5004612;28;20401;-55
2024/01/06 07:52:35;;;;;;;30.98;28.83;;;;;;;5.72;100.00;100727.50;5004893;28;20081;-62
2024/01/06 07:55:02;;;;;;;35.45;32.58;;;;;;;6.08;100.00;100724.34;5007226;28;20050;-63
2024/01/06 07:57:29;;;;;;;31.77;29.38;;;;;;;6.26;100.00;100726.66;5006384;28;20058;-62
2024/01/06 07:59:56;;;;;;;30.75;28.45;;;;;;;6.13;100.00;100718.53;5006985;28;20050;-63
2024/01/06 08:02:23;;;;;;;32.50;30.10;;;;;;;6.50;100.00;100714.25;5008172;28;20467;-63
2024/01/06 08:04:50;;;;;;;34.40;31.90;;;;;;;6.88;100.00;100713.22;5007208;28;20062;-54
2024/01/06 08:07:18;;;;;;;30.35;28.05;;;;;;;7.12;100.00;100721.88;5007756;28;20065;-53
2024/01/06 08:09:45;;;;;;;30.05;27.83;;;;;;;7.17;100.00;100732.72;5006969;28;20049;-52
2024/01/06 08:12:12;;;;;;;31.45;29.05;;;;;;;7.25;100.00;100732.59;5012296;28;20060;-54
2024/01/06 08:14:39;;;;;;;32.22;29.83;;;;;;;6.96;100.00;100736.09;5010201;28;20065;-54
2024/01/06 08:17:06;;;;;;;33.05;30.55;;;;;;;7.08;100.00;100731.97;5005035;28;20495;-55
2024/01/06 08:19:33;;;;;;;36.58;33.28;;;;;;;6.94;100.00;100734.63;5001843;28;20058;-53
2024/01/06 08:22:00;;;;;;;34.65;31.73;;;;;;;6.76;100.00;100717.31;5002752;28;20046;-54
2024/01/06 08:24:28;;;;;;;42.83;38.75;;;;;;;6.59;100.00;100718.47;5008662;28;20049;-54
2024/01/06 08:26:55;;;;;;;36.65;33.65;;;;;;;6.77;100.00;100732.13;5009075;28;20077;-55
2024/01/06 08:29:22;;;;;;;37.78;34.67;;;;;;;6.92;100.00;100729.50;5008494;28;20054;-54
2024/01/06 08:31:51;;;;;;;36.00;33.20;;;;;;;6.93;100.00;100715.31;5006872;28;20435;-53
2024/01/06 08:34:18;;;;;;;38.25;35.30;;;;;;;6.82;100.00;100708.66;5006367;28;20146;-54
2024/01/06 08:36:45;;;;;;;41.55;37.72;;;;;;;6.94;100.00;100711.66;5006996;28;20499;-54
2024/01/06 08:39:13;;;;;;;41.45;37.20;;;;;;;7.08;100.00;100710.84;5006776;28;20438;-55
2024/01/06 08:41:41;;;;;;;35.10;32.30;;;;;;;7.12;100.00;100719.22;5004727;28;20575;-62
2024/01/06 08:44:08;;;;;;;34.13;31.15;;;;;;;7.10;100.00;100703.53;5004683;28;20045;-53
2024/01/06 08:46:35;;;;;;;32.05;29.55;;;;;;;7.03;100.00;100707.13;5007199;28;20093;-54
2024/01/06 08:49:02;;;;;;;32.20;29.77;;;;;;;7.02;100.00;100697.53;5007130;28;20507;-62
2024/01/06 08:51:30;;;;;;;33.75;31.25;;;;;;;7.11;100.00;100691.19;5006873;28;20141;-62
2024/01/06 08:53:57;;;;;;;33.20;30.63;;;;;;;7.26;100.00;100691.16;5003183;28;20045;-63
2024/01/06 08:56:24;;;;;;;39.53;36.45;;;;;;;7.44;100.00;100682.81;5002434;28;20503;-63
2024/01/06 08:58:52;;;;;;;39.05;35.33;;;;;;;7.38;100.00;100683.56;5006464;28;20046;-63
2024/01/06 09:01:20;;;;;;;39.95;36.25;;;;;;;7.47;100.00;100680.63;5006051;28;20049;-63
2024/01/06 09:03:47;;;;;;;34.67;31.98;;;;;;;7.29;100.00;100674.91;5007811;28;21641;-63
2024/01/06 09:06:14;;;;;;;31.95;29.55;;;;;;;7.25;100.00;100671.84;5005229;28;20068;-62
2024/01/06 09:08:41;;;;;;;32.10;29.50;;;;;;;7.42;100.00;100675.09;5008284;28;20113;-63
2024/01/06 09:11:08;;;;;;;40.83;37.55;;;;;;;7.52;100.00;100664.22;5006505;28;20105;-54
2024/01/06 09:13:35;;;;;;;41.28;37.72;;;;;;;7.67;100.00;100658.88;5006536;28;20065;-55
2024/01/06 09:16:04;;;;;;;41.75;37.63;;;;;;;7.63;100.00;100661.09;5005217;28;20061;-54
2024/01/06 09:18:31;;;;;;;40.85;37.00;;;;;;;7.61;100.00;100655.16;5011205;28;20049;-54
2024/01/06 09:20:58;;;;;;;33.92;31.05;;;;;;;7.75;100.00;100643.72;5007641;28;20132;-54
2024/01/06 09:23:25;;;;;;;33.97;30.85;;;;;;;7.73;100.00;100643.06;5010999;28;20054;-54
2024/01/06 09:25:52;;;;;;;34.97;31.83;;;;;;;7.81;100.00;100639.50;5006680;28;20046;-54
2024/01/06 09:28:21;;;;;;;32.55;30.13;;;;;;;7.86;100.00;100639.72;5008232;28;20060;-54
2024/01/06 09:30:48;;;;;;;29.75;26.88;;;;;;;7.79;100.00;100636.22;5006792;28;20515;-53
2024/01/06 09:33:17;;;;;;;27.67;25.67;;;;;;;7.80;100.00;100619.34;5005676;28;20050;-54
2024/01/06 09:35:46;;;;;;;30.02;27.73;;;;;;;8.18;100.00;100622.50;5000494;28;20046;-51
2024/01/06 09:38:13;;;;;;;27.17;25.17;;;;;;;8.00;100.00;100612.41;5014891;28;20417;-53
2024/01/06 09:40:44;;;;;;;27.92;25.83;;;;;;;8.06;100.00;100607.34;5006554;28;20058;-51
2024/01/06 09:43:11;;;;;;;27.48;25.55;;;;;;;8.09;100.00;100607.78;5008683;28;20041;-54
2024/01/06 09:45:39;;;;;;;27.48;25.38;;;;;;;8.26;100.00;100598.56;5004231;28;20142;-52
2024/01/06 09:48:11;;;;;;;29.50;26.98;;;;;;;8.14;100.00;100604.56;5005980;28;20095;-53
2024/01/06 09:50:41;;;;;;;28.98;26.67;;;;;;;8.27;100.00;100591.44;5000675;28;20062;-61
2024/01/06 09:53:10;;;;;;;26.83;24.83;;;;;;;8.49;100.00;100597.50;4996499;28;20054;-62
2024/01/06 09:55:38;;;;;;;27.40;25.40;;;;;;;8.98;100.00;100577.97;5004411;28;20053;-61
2024/01/06 09:58:06;;;;;;;29.33;27.13;;;;;;;9.24;100.00;100581.72;5001617;28;20050;-62
2024/01/06 10:00:33;;;;;;;28.52;26.23;;;;;;;9.68;100.00;100567.91;4996795;28;20745;-63
2024/01/06 10:03:00;;;;;;;27.98;25.77;;;;;;;9.99;100.00;100564.66;5008350;28;20100;-62
2024/01/06 10:05:27;;;;;;;26.83;24.80;;;;;;;10.42;100.00;100564.19;4999997;28;20048;-62
2024/01/06 10:07:55;;;;;;;27.17;24.98;;;;;;;11.01;100.00;100570.28;5001624;28;20442;-63
2024/01/06 10:10:23;;;;;;;26.65;24.50;;;;;;;11.31;100.00;100551.09;5000528;28;20092;-63
2024/01/06 10:12:55;;;;;;;26.77;24.67;;;;;;;11.47;100.00;100539.97;5007145;28;20570;-62
2024/01/06 10:15:22;;;;;;;27.77;25.63;;;;;;;11.38;100.00;100531.44;5002274;28;20111;-62
2024/01/06 10:17:49;;;;;;;26.35;24.35;;;;;;;11.28;100.00;100535.59;5003486;28;20053;-63
2024/01/06 10:20:17;;;;;;;26.25;24.25;;;;;;;10.54;100.00;100543.13;5004747;28;20053;-61
2024/01/06 10:22:44;;;;;;;26.50;24.60;;;;;;;10.64;100.00;100538.16;5009714;28;20057;-62
2024/01/06 10:25:13;;;;;;;26.45;24.45;;;;;;;11.42;100.00;100529.97;5008298;28;20061;-62
2024/01/06 10:27:41;;;;;;;26.50;24.50;;;;;;;12.07;100.00;100524.34;5004196;28;20050;-54
2024/01/06 10:30:09;;;;;;;27.42;25.27;;;;;;;12.37;100.00;100519.09;5003524;28;20515;-54
2024/01/06 10:32:37;;;;;;;26.92;24.67;;;;;;;12.87;100.00;100512.72;5007317;28;20419;-54
2024/01/06 10:35:06;;;;;;;26.23;24.33;;;;;;;13.20;100.00;100498.13;5007280;28;20046;-54
2024/01/06 10:37:33;;;;;;;24.27;22.38;;;;;;;13.96;100.00;100489.28;5010681;28;20509;-54
2024/01/06 10:40:08;;;;;;;25.02;23.05;;;;;;;13.95;100.00;100482.31;5011357;28;20049;-54
2024/01/06 10:42:37;;;;;;;23.95;21.98;;;;;;;14.93;100.00;100476.25;5003567;28;20527;-55
2024/01/06 10:45:07;;;;;;;27.60;25.45;;;;;;;15.96;100.00;100466.09;4998317;28;20141;-55
2024/01/06 10:47:35;;;;;;;26.98;24.77;;;;;;;17.18;100.00;100453.25;5007402;28;20424;-52
2024/01/06 10:50:03;;;;;;;26.35;24.05;;;;;;;17.75;100.00;100455.25;5006696;28;20050;-54
2024/01/06 10:52:30;;;;;;;25.60;23.00;;;;;;;17.38;100.00;100447.22;5006910;28;20052;-54
2024/01/06 10:54:58;;;;;;;23.80;21.70;;;;;;;18.23;100.00;100448.00;5004325;28;20091;-55
2024/01/06 10:57:25;;;;;;;23.30;21.40;;;;;;;18.61;100.00;100445.97;4996681;28;20049;-54
2024/01/06 10:59:54;;;;;;;22.33;20.58;;;;;;;18.87;100.00;100449.53;5001009;28;20050;-54
2024/01/06 11:02:20;;;;;;;24.90;22.85;;;;;;;18.60;100.00;100444.34;5007097;28;20057;-54
2024/01/06 11:04:50;;;;;;;28.00;25.90;;;;;;;19.42;100.00;100436.34;5006219;28;20041;-54
2024/01/06 11:07:18;;;;;;;30.10;27.25;;;;;;;19.47;100.00;100433.66;5007905;28;20493;-54
2024/01/06 11:09:58;;;;;;;25.52;23.33;;;;;;;19.30;100.00;100425.03;5004357;28;20084;-53